Time;durP1;ratioP1;P1;durP2;ratioP2;P2;SDS_P1;SDS_P2;PMS_P1;PMS_P2;Temp;Humidity;BMP_temperature;BMP_pressure;BME280_temperature;BME280_humidity;BME280_pressure;Samples;Min_cycle;Max_cycle;Signal;HPM_P1;HPM_P2
2023/06/11 00:02:05;;;;;;;7.82;5.68;;;15.40;99.90;;;;;;5095126;28;20188;-81
2023/06/11 00:04:34;;;;;;;7.32;5.25;;;15.40;99.90;;;;;;5094808;28;20167;-81
2023/06/11 00:07:01;;;;;;;6.38;5.15;;;15.40;99.90;;;;;;5094568;28;20587;-81
2023/06/11 00:09:28;;;;;;;7.03;5.30;;;15.50;99.90;;;;;;5094661;28;20183;-81
2023/06/11 00:11:54;;;;;;;6.68;5.00;;;15.40;99.90;;;;;;5094697;28;20715;-81
2023/06/11 00:14:21;;;;;;;7.85;5.53;;;15.40;99.90;;;;;;5094499;28;20255;-82
2023/06/11 00:16:48;;;;;;;6.78;5.10;;;15.30;99.90;;;;;;5094406;28;20174;-81
2023/06/11 00:19:14;;;;;;;7.82;5.50;;;15.40;99.90;;;;;;5094044;28;20171;-81
2023/06/11 00:21:43;;;;;;;7.90;5.20;;;15.40;99.90;;;;;;5094344;28;20181;-81
2023/06/11 00:24:14;;;;;;;8.30;5.22;;;15.30;99.90;;;;;;5094786;28;20634;-80
2023/06/11 00:26:40;;;;;;;11.20;5.55;;;15.30;99.90;;;;;;5094130;28;20202;-81
2023/06/11 00:29:07;;;;;;;9.55;5.10;;;15.20;99.90;;;;;;5094207;28;20228;-80
2023/06/11 00:31:33;;;;;;;6.97;4.93;;;15.10;99.90;;;;;;5094243;28;20483;-79
2023/06/11 00:34:00;;;;;;;7.63;5.05;;;15.20;99.90;;;;;;5094335;28;20182;-80
2023/06/11 00:36:26;;;;;;;11.02;5.63;;;15.10;99.90;;;;;;5094352;28;20178;-80
2023/06/11 00:38:53;;;;;;;7.05;5.20;;;15.10;99.90;;;;;;5102269;28;20213;-81
2023/06/11 00:41:20;;;;;;;9.27;5.25;;;15.00;99.90;;;;;;5107745;28;20193;-80
2023/06/11 00:43:48;;;;;;;8.80;5.53;;;15.00;99.90;;;;;;5095315;28;20622;-80
2023/06/11 00:46:16;;;;;;;9.45;5.85;;;15.00;99.90;;;;;;5094033;28;20693;-80
2023/06/11 00:48:42;;;;;;;9.57;5.80;;;15.00;99.90;;;;;;5093762;28;20311;-80
2023/06/11 00:51:10;;;;;;;9.50;5.63;;;14.90;99.90;;;;;;5093850;28;20543;-80
2023/06/11 00:53:36;;;;;;;6.88;5.80;;;14.90;99.90;;;;;;5075900;28;20540;-79
2023/06/11 00:56:02;;;;;;;12.30;5.15;;;14.80;99.90;;;;;;5093755;28;20193;-80
2023/06/11 00:58:29;;;;;;;7.53;5.10;;;14.80;99.90;;;;;;5094049;28;20240;-80
2023/06/11 01:00:58;;;;;;;12.40;6.05;;;14.80;99.90;;;;;;5095659;28;20190;-81
2023/06/11 01:03:26;;;;;;;15.90;5.90;;;14.80;99.90;;;;;;5098434;28;20533;-80
2023/06/11 01:06:02;;;;;;;9.40;5.70;;;14.70;99.90;;;;;;5095384;28;20719;-81
2023/06/11 01:08:33;;;;;;;6.90;5.32;;;14.80;99.90;;;;;;5102689;28;20182;-81
2023/06/11 01:11:01;;;;;;;10.52;5.68;;;14.70;99.90;;;;;;5109815;28;20178;-80
2023/06/11 01:13:30;;;;;;;7.07;5.15;;;14.60;99.90;;;;;;5110650;28;20178;-80
2023/06/11 01:16:00;;;;;;;9.52;4.82;;;14.70;99.90;;;;;;5097809;28;20651;-80
2023/06/11 01:18:30;;;;;;;8.70;5.57;;;14.60;99.90;;;;;;5093752;28;20224;-81
2023/06/11 01:21:04;;;;;;;9.40;5.10;;;14.70;99.90;;;;;;5094422;28;20171;-81
2023/06/11 01:24:18;;;;;;;11.38;5.40;;;14.70;99.90;;;;;;5094235;28;20167;-81
2023/06/11 01:27:05;;;;;;;7.45;4.75;;;14.70;99.90;;;;;;5032159;28;20218;-80
2023/06/11 01:29:35;;;;;;;7.88;5.32;;;14.70;99.90;;;;;;5092950;28;20256;-81
2023/06/11 01:32:02;;;;;;;8.07;5.55;;;14.60;99.90;;;;;;5093113;28;20631;-81
2023/06/11 01:34:28;;;;;;;12.10;5.28;;;14.60;99.90;;;;;;5093615;28;20178;-80
2023/06/11 01:36:54;;;;;;;7.97;5.18;;;14.50;99.90;;;;;;5092937;28;20180;-80
2023/06/11 01:39:20;;;;;;;12.02;4.93;;;14.60;99.90;;;;;;5093081;28;20190;-81
2023/06/11 01:41:46;;;;;;;10.10;5.22;;;14.60;99.90;;;;;;5092759;28;20216;-80
2023/06/11 01:44:12;;;;;;;6.15;4.50;;;14.50;99.90;;;;;;5093204;28;20190;-81
2023/06/11 01:46:38;;;;;;;9.23;5.22;;;14.40;99.90;;;;;;5087749;28;20601;-80
2023/06/11 01:49:04;;;;;;;8.52;5.13;;;14.30;99.90;;;;;;5098281;28;20187;-80
2023/06/11 01:51:29;;;;;;;6.55;4.68;;;14.30;99.90;;;;;;5092985;28;20231;-81
2023/06/11 01:53:56;;;;;;;8.98;4.90;;;14.30;99.90;;;;;;5092780;28;20549;-80
2023/06/11 01:56:22;;;;;;;5.68;4.40;;;14.30;99.90;;;;;;5092932;28;20182;-81
2023/06/11 01:58:47;;;;;;;8.32;5.03;;;14.20;99.90;;;;;;5092956;28;20175;-81
2023/06/11 02:01:13;;;;;;;9.20;4.30;;;14.20;99.90;;;;;;5093112;28;20520;-81
2023/06/11 02:03:41;;;;;;;7.05;4.30;;;14.20;99.90;;;;;;5093095;28;20175;-81
2023/06/11 02:06:08;;;;;;;12.98;5.07;;;14.10;99.90;;;;;;5092767;28;20214;-80
2023/06/11 02:08:34;;;;;;;4.82;3.55;;;14.20;99.90;;;;;;5092901;28;20178;-80
2023/06/11 02:10:59;;;;;;;5.20;3.83;;;14.10;99.90;;;;;;5092588;28;20183;-80
2023/06/11 02:13:30;;;;;;;12.30;4.55;;;14.10;99.90;;;;;;5093176;28;20253;-81
2023/06/11 02:15:57;;;;;;;4.57;3.67;;;14.10;99.90;;;;;;5093242;28;20310;-81
2023/06/11 02:18:22;;;;;;;6.38;4.28;;;14.00;99.90;;;;;;5092970;28;20265;-81
2023/06/11 02:20:48;;;;;;;5.68;3.90;;;14.00;99.90;;;;;;5092582;28;20613;-81
2023/06/11 02:23:14;;;;;;;7.30;3.92;;;14.00;99.90;;;;;;5092959;28;20185;-81
2023/06/11 02:25:39;;;;;;;5.50;4.03;;;14.00;99.90;;;;;;5092598;28;20206;-81
2023/06/11 02:28:06;;;;;;;6.68;3.65;;;14.10;99.90;;;;;;5092361;28;20234;-81
2023/06/11 02:30:31;;;;;;;9.20;3.60;;;14.00;99.90;;;;;;5092855;28;20274;-82
2023/06/11 02:32:57;;;;;;;5.22;3.20;;;14.00;99.90;;;;;;5074466;28;20253;-81
2023/06/11 02:35:22;;;;;;;4.78;3.33;;;14.00;99.90;;;;;;5092779;28;20274;-81
2023/06/11 02:37:48;;;;;;;5.68;3.53;;;14.10;99.90;;;;;;5092522;28;20550;-80
2023/06/11 02:40:14;;;;;;;7.05;3.30;;;14.10;99.90;;;;;;5092493;28;20183;-81
2023/06/11 02:42:39;;;;;;;5.32;3.47;;;14.00;99.90;;;;;;5078129;28;20174;-81
2023/06/11 02:45:06;;;;;;;6.97;3.40;;;14.00;99.90;;;;;;5096133;28;20206;-81
2023/06/11 02:47:31;;;;;;;5.47;3.65;;;14.00;99.90;;;;;;5096820;28;20233;-81
2023/06/11 02:49:57;;;;;;;6.32;3.55;;;14.00;99.90;;;;;;5099773;28;20660;-82
2023/06/11 02:52:22;;;;;;;6.25;3.78;;;13.90;99.90;;;;;;5100493;28;20252;-81
2023/06/11 02:54:48;;;;;;;6.32;3.88;;;14.00;99.90;;;;;;5096052;28;20208;-82
2023/06/11 02:57:14;;;;;;;5.80;3.75;;;14.00;99.90;;;;;;5096147;28;20262;-81
2023/06/11 02:59:40;;;;;;;6.75;3.92;;;13.90;99.90;;;;;;5096359;28;20247;-81
2023/06/11 03:02:05;;;;;;;5.18;3.38;;;13.90;99.90;;;;;;5096016;28;20580;-81
2023/06/11 03:04:31;;;;;;;6.00;3.90;;;13.90;99.90;;;;;;5096123;28;20258;-81
2023/06/11 03:06:57;;;;;;;6.18;3.53;;;14.00;99.90;;;;;;5095787;28;20572;-80
2023/06/11 03:09:24;;;;;;;6.03;3.65;;;13.90;99.90;;;;;;5096002;28;20175;-81
2023/06/11 03:11:52;;;;;;;5.47;3.28;;;13.80;99.90;;;;;;5096244;28;20237;-82
2023/06/11 03:14:20;;;;;;;7.65;3.47;;;14.00;99.90;;;;;;5095941;28;20212;-81
2023/06/11 03:16:46;;;;;;;4.70;3.17;;;14.00;99.90;;;;;;5095915;28;20206;-81
2023/06/11 03:19:12;;;;;;;8.95;3.30;;;14.00;99.90;;;;;;5095631;28;20205;-81
2023/06/11 03:21:37;;;;;;;9.52;2.92;;;14.00;99.90;;;;;;5095596;28;20623;-81
2023/06/11 03:24:03;;;;;;;5.28;3.50;;;14.00;99.90;;;;;;5096391;28;20175;-81
2023/06/11 03:26:29;;;;;;;6.72;3.33;;;14.00;99.90;;;;;;5110201;28;20214;-81
2023/06/11 03:28:55;;;;;;;14.32;3.17;;;14.00;99.90;;;;;;5108568;28;20237;-79
2023/06/11 03:31:20;;;;;;;7.30;3.10;;;14.00;99.90;;;;;;5109224;28;20181;-81
2023/06/11 03:33:46;;;;;;;9.43;3.05;;;14.00;99.90;;;;;;5096531;28;20519;-82
2023/06/11 03:36:11;;;;;;;4.38;3.08;;;14.10;99.90;;;;;;5095726;28;20265;-82
2023/06/11 03:38:37;;;;;;;5.03;2.85;;;14.10;99.90;;;;;;5095447;28;20178;-82
2023/06/11 03:41:03;;;;;;;5.55;3.15;;;14.10;99.90;;;;;;5095242;28;20178;-81
2023/06/11 03:43:28;;;;;;;3.92;3.28;;;14.10;99.90;;;;;;5095356;28;20552;-81
2023/06/11 03:45:54;;;;;;;8.30;2.63;;;;;;;;;;5095258;28;20217;-81
2023/06/11 03:48:20;;;;;;;4.80;3.20;;;14.20;99.90;;;;;;5095143;28;20182;-81
2023/06/11 03:50:46;;;;;;;6.97;3.33;;;14.20;99.90;;;;;;5095151;28;20520;-81
2023/06/11 03:53:11;;;;;;;6.68;2.35;;;14.20;99.90;;;;;;5094209;28;20210;-81
2023/06/11 03:55:37;;;;;;;4.95;2.50;;;14.20;99.90;;;;;;5095496;28;20682;-81
2023/06/11 03:58:03;;;;;;;3.60;2.25;;;14.20;99.90;;;;;;5076951;28;20179;-81
2023/06/11 04:00:31;;;;;;;6.88;3.03;;;14.20;99.90;;;;;;5094983;28;20286;-81
2023/06/11 04:02:58;;;;;;;4.55;2.78;;;14.20;99.90;;;;;;5095019;28;20205;-81
2023/06/11 04:05:24;;;;;;;3.25;2.50;;;14.30;99.90;;;;;;5094738;28;20207;-81
2023/06/11 04:07:50;;;;;;;3.67;2.47;;;14.20;99.90;;;;;;5094850;28;20772;-81
2023/06/11 04:10:16;;;;;;;5.15;2.80;;;14.20;99.90;;;;;;5094821;28;20231;-81
2023/06/11 04:12:42;;;;;;;3.80;2.30;;;14.30;99.90;;;;;;5094839;28;20183;-81
2023/06/11 04:15:07;;;;;;;4.13;2.65;;;14.40;99.90;;;;;;5094374;28;20181;-80
2023/06/11 04:17:34;;;;;;;3.95;2.20;;;14.50;99.90;;;;;;5094939;28;20549;-80
2023/06/11 04:20:00;;;;;;;4.25;2.35;;;14.60;99.90;;;;;;5094567;28;20182;-80
2023/06/11 04:22:26;;;;;;;5.03;2.50;;;14.60;99.90;;;;;;5094820;28;20265;-81
2023/06/11 04:24:53;;;;;;;5.05;2.60;;;14.60;99.90;;;;;;5094475;28;20178;-81
2023/06/11 04:27:20;;;;;;;2.95;2.13;;;14.60;99.90;;;;;;5097424;28;20269;-81
2023/06/11 04:29:48;;;;;;;2.72;2.25;;;14.60;99.90;;;;;;5097097;28;20242;-82
2023/06/11 04:32:16;;;;;;;2.95;1.98;;;14.60;99.90;;;;;;5094283;28;20639;-81
2023/06/11 04:34:43;;;;;;;3.30;2.33;;;14.70;99.90;;;;;;5094216;28;20183;-82
2023/06/11 04:37:09;;;;;;;2.85;2.03;;;14.80;99.90;;;;;;5094907;28;20178;-81
2023/06/11 04:39:35;;;;;;;6.03;2.08;;;14.80;99.90;;;;;;5096205;28;20229;-82
2023/06/11 04:42:02;;;;;;;3.60;2.80;;;14.80;99.90;;;;;;5094749;28;20174;-81
2023/06/11 04:44:28;;;;;;;5.40;2.15;;;14.80;99.90;;;;;;5094640;28;20193;-82
2023/06/11 04:46:57;;;;;;;3.58;2.28;;;14.80;99.90;;;;;;5093917;28;20206;-82
2023/06/11 04:49:23;;;;;;;2.90;1.80;;;14.80;99.90;;;;;;5093766;28;20186;-82
2023/06/11 04:51:52;;;;;;;3.58;2.30;;;14.90;99.90;;;;;;5094302;28;20170;-82
2023/06/11 04:54:21;;;;;;;3.60;2.05;;;14.90;99.90;;;;;;5076237;28;20197;-80
2023/06/11 04:56:48;;;;;;;3.20;2.30;;;15.00;99.90;;;;;;5076630;28;20183;-81
2023/06/11 04:59:13;;;;;;;4.88;1.95;;;14.90;99.90;;;;;;5093762;28;20178;-80
2023/06/11 05:01:46;;;;;;;4.88;2.05;;;15.10;99.90;;;;;;5093956;28;20175;-80
2023/06/11 05:04:13;;;;;;;4.57;1.90;;;15.10;99.90;;;;;;5099305;28;20186;-80
2023/06/11 05:06:44;;;;;;;6.13;2.13;;;15.20;99.90;;;;;;5083757;28;20699;-80
2023/06/11 05:09:11;;;;;;;3.80;2.53;;;15.20;99.90;;;;;;5073972;28;20202;-80
2023/06/11 05:11:37;;;;;;;4.53;1.65;;;15.30;99.90;;;;;;5073373;28;20179;-81
2023/06/11 05:14:02;;;;;;;3.25;1.90;;;15.30;99.90;;;;;;5071875;28;20685;-80
2023/06/11 05:16:28;;;;;;;2.25;1.70;;;15.30;99.90;;;;;;5071149;28;20191;-81
2023/06/11 05:18:54;;;;;;;3.20;2.05;;;15.50;99.90;;;;;;5070017;28;20198;-80
2023/06/11 05:21:20;;;;;;;2.60;1.90;;;15.60;99.90;;;;;;5060624;28;20179;-80
2023/06/11 05:23:45;;;;;;;2.45;1.80;;;15.70;99.90;;;;;;5072087;28;20179;-81
2023/06/11 05:26:15;;;;;;;4.45;2.08;;;15.80;99.90;;;;;;5072676;28;20219;-81
2023/06/11 05:28:41;;;;;;;2.85;1.80;;;15.70;99.90;;;;;;5055950;28;20555;-81
2023/06/11 05:31:11;;;;;;;3.72;1.92;;;15.70;99.90;;;;;;5071229;28;20190;-81
2023/06/11 05:33:36;;;;;;;1.90;1.58;;;15.80;99.90;;;;;;5070865;28;20187;-80
2023/06/11 05:36:03;;;;;;;3.13;1.88;;;15.80;99.90;;;;;;5074723;28;21278;-81
2023/06/11 05:38:28;;;;;;;2.33;1.85;;;15.90;99.90;;;;;;5079372;28;20286;-81
2023/06/11 05:40:54;;;;;;;2.70;2.10;;;16.10;99.90;;;;;;5078816;28;20268;-81
2023/06/11 05:43:20;;;;;;;3.35;2.00;;;16.20;99.90;;;;;;5072554;28;20186;-81
2023/06/11 05:45:50;;;;;;;2.08;1.58;;;16.30;99.90;;;;;;5072532;28;20691;-81
2023/06/11 05:48:16;;;;;;;2.42;1.55;;;16.30;99.90;;;;;;5072798;28;20584;-81
2023/06/11 05:50:42;;;;;;;3.05;1.92;;;16.40;99.90;;;;;;5072997;28;20224;-80
2023/06/11 05:53:09;;;;;;;2.42;1.92;;;16.30;99.90;;;;;;5053109;28;20199;-80
2023/06/11 05:55:35;;;;;;;5.90;2.05;;;16.40;99.90;;;;;;5077067;28;20175;-82
2023/06/11 05:58:01;;;;;;;2.90;1.70;;;16.40;99.90;;;;;;5078450;28;20211;-81
2023/06/11 06:00:28;;;;;;;4.05;1.75;;;16.50;99.90;;;;;;5082933;28;20210;-81
2023/06/11 06:02:53;;;;;;;5.85;2.65;;;16.60;99.90;;;;;;5080178;28;20183;-81
2023/06/11 06:05:19;;;;;;;4.50;1.77;;;16.70;99.90;;;;;;5081082;28;20736;-82
2023/06/11 06:07:45;;;;;;;4.63;2.28;;;16.70;99.90;;;;;;5084326;28;20262;-82
2023/06/11 06:10:11;;;;;;;3.03;1.95;;;;;;;;;;5079083;28;20183;-82
2023/06/11 06:12:36;;;;;;;3.97;2.22;;;16.80;99.90;;;;;;5083345;28;20640;-82
2023/06/11 06:15:02;;;;;;;5.72;2.10;;;16.90;99.90;;;;;;5067895;28;20258;-82
2023/06/11 06:17:28;;;;;;;2.45;1.55;;;17.00;99.90;;;;;;5082348;28;20278;-82
2023/06/11 06:19:53;;;;;;;2.78;1.90;;;17.10;99.90;;;;;;5086345;28;20243;-83
2023/06/11 06:22:19;;;;;;;3.45;1.73;;;17.10;99.90;;;;;;5086507;28;20175;-82
2023/06/11 06:24:45;;;;;;;2.67;2.10;;;17.10;99.90;;;;;;5067399;28;20185;-83
2023/06/11 06:27:11;;;;;;;5.25;1.98;;;17.20;99.90;;;;;;5082337;28;20226;-83
2023/06/11 06:29:38;;;;;;;4.97;2.60;;;17.20;99.90;;;;;;5082649;28;20226;-81
2023/06/11 06:32:08;;;;;;;3.75;2.60;;;17.20;99.90;;;;;;5068997;28;20239;-82
2023/06/11 06:34:34;;;;;;;6.40;1.83;;;17.30;99.90;;;;;;5087059;28;20532;-83
2023/06/11 06:37:00;;;;;;;6.32;3.03;;;17.30;99.90;;;;;;5083702;28;20190;-82
2023/06/11 06:39:26;;;;;;;2.78;2.00;;;17.40;99.90;;;;;;5080095;28;20183;-81
2023/06/11 06:41:52;;;;;;;2.30;1.85;;;17.50;99.90;;;;;;5081014;28;20178;-82
2023/06/11 06:44:18;;;;;;;3.00;1.88;;;17.50;99.90;;;;;;5086966;28;20843;-81
2023/06/11 06:46:43;;;;;;;3.22;2.03;;;17.60;99.90;;;;;;5066370;28;20221;-82
2023/06/11 06:49:09;;;;;;;11.38;2.30;;;17.60;99.90;;;;;;5068454;28;20257;-82
2023/06/11 06:51:37;;;;;;;2.10;1.85;;;17.60;99.90;;;;;;5081317;28;20576;-83
2023/06/11 06:54:03;;;;;;;3.15;1.92;;;17.60;99.90;;;;;;5062010;28;20256;-82
2023/06/11 06:56:29;;;;;;;2.17;1.73;;;17.70;99.90;;;;;;5075600;28;20191;-82
2023/06/11 06:58:54;;;;;;;3.17;2.10;;;17.70;99.90;;;;;;5060039;28;20644;-82
2023/06/11 07:01:20;;;;;;;6.40;1.77;;;17.70;99.90;;;;;;5075712;28;20224;-80
2023/06/11 07:03:46;;;;;;;2.67;1.90;;;17.80;99.90;;;;;;5075919;28;20525;-82
2023/06/11 07:06:12;;;;;;;1.70;1.60;;;17.80;99.90;;;;;;5074059;28;20207;-82
2023/06/11 07:08:41;;;;;;;3.38;2.17;;;17.80;99.90;;;;;;5055462;28;20180;-82
2023/06/11 07:11:06;;;;;;;2.50;1.80;;;18.00;99.90;;;;;;5073915;28;20270;-83
2023/06/11 07:13:32;;;;;;;3.22;2.00;;;18.10;99.90;;;;;;5074008;28;20263;-82
2023/06/11 07:15:58;;;;;;;4.10;2.10;;;18.20;99.90;;;;;;5057306;28;20640;-83
2023/06/11 07:18:25;;;;;;;6.43;2.60;;;18.20;99.90;;;;;;5075111;28;20244;-83
2023/06/11 07:20:50;;;;;;;3.65;2.03;;;18.20;99.90;;;;;;5057661;28;20270;-83
2023/06/11 07:23:16;;;;;;;2.85;2.25;;;18.20;99.90;;;;;;5057567;28;20309;-83
2023/06/11 07:25:43;;;;;;;2.67;2.25;;;18.40;99.90;;;;;;5074615;28;20222;-83
2023/06/11 07:28:09;;;;;;;8.60;2.30;;;18.50;99.90;;;;;;5073503;28;20908;-82
2023/06/11 07:30:35;;;;;;;6.05;1.90;;;18.50;99.90;;;;;;5041975;28;20317;-83
2023/06/11 07:33:01;;;;;;;4.85;2.40;;;18.40;99.90;;;;;;5071441;28;20400;-81
2023/06/11 07:35:27;;;;;;;3.85;2.08;;;18.50;99.90;;;;;;5072720;28;20187;-81
2023/06/11 07:37:53;;;;;;;3.10;2.08;;;18.60;99.90;;;;;;5073616;28;20194;-81
2023/06/11 07:40:20;;;;;;;7.05;2.65;;;18.80;99.90;;;;;;5055690;28;20538;-82
2023/06/11 07:42:47;;;;;;;3.45;1.77;;;18.50;99.90;;;;;;5072841;28;20194;-83
2023/06/11 07:45:14;;;;;;;3.15;2.45;;;18.70;99.90;;;;;;5073562;28;20291;-81
2023/06/11 07:47:40;;;;;;;4.93;2.08;;;18.80;99.90;;;;;;5055046;28;20539;-82
2023/06/11 07:50:06;;;;;;;3.92;2.50;;;18.80;99.90;;;;;;5073626;28;20199;-83
2023/06/11 07:52:32;;;;;;;3.95;2.33;;;18.90;99.90;;;;;;5073280;28;20190;-83
2023/06/11 07:54:58;;;;;;;5.85;2.47;;;18.90;99.90;;;;;;5073102;28;20183;-83
2023/06/11 07:57:23;;;;;;;2.95;2.15;;;18.90;99.90;;;;;;5072787;28;20270;-83
2023/06/11 07:59:49;;;;;;;4.60;2.13;;;19.00;99.90;;;;;;5073215;28;20620;-82
2023/06/11 08:02:15;;;;;;;2.35;2.00;;;19.00;99.90;;;;;;5073235;28;20187;-81
2023/06/11 08:04:41;;;;;;;5.25;2.42;;;19.00;99.90;;;;;;5072887;28;20647;-82
2023/06/11 08:07:07;;;;;;;5.18;2.45;;;18.90;99.90;;;;;;5073087;28;20623;-85
2023/06/11 08:09:35;;;;;;;3.10;2.30;;;18.90;99.90;;;;;;5038639;28;20265;-82
2023/06/11 08:12:01;;;;;;;2.90;2.03;;;18.90;99.90;;;;;;5070263;28;20190;-82
2023/06/11 08:14:27;;;;;;;2.22;2.03;;;18.90;99.90;;;;;;5072843;28;20175;-80
2023/06/11 08:16:53;;;;;;;3.10;2.17;;;18.90;99.90;;;;;;5072909;28;20183;-83
2023/06/11 08:19:18;;;;;;;2.60;2.13;;;19.00;99.90;;;;;;5072943;28;20237;-83
2023/06/11 08:21:46;;;;;;;2.35;1.77;;;19.20;99.90;;;;;;5055118;28;20187;-82
2023/06/11 08:24:12;;;;;;;2.25;2.03;;;19.40;99.90;;;;;;5073516;28;20731;-83
2023/06/11 08:26:38;;;;;;;2.22;1.95;;;19.20;99.90;;;;;;5055168;28;20290;-82
2023/06/11 08:29:03;;;;;;;3.78;2.13;;;19.20;99.90;;;;;;5056003;28;20239;-83
2023/06/11 08:31:29;;;;;;;7.60;2.28;;;19.40;99.90;;;;;;5074052;28;20182;-84
2023/06/11 08:33:55;;;;;;;3.13;2.13;;;19.50;99.90;;;;;;5056102;28;20186;-82
2023/06/11 08:36:21;;;;;;;2.17;1.73;;;19.70;99.90;;;;;;5074101;28;20624;-82
2023/06/11 08:38:47;;;;;;;5.45;2.10;;;19.90;99.90;;;;;;5057176;28;20191;-84
2023/06/11 08:41:14;;;;;;;2.90;2.20;;;20.10;99.90;;;;;;5090054;28;20269;-84
2023/06/11 08:43:40;;;;;;;3.45;2.25;;;20.20;99.90;;;;;;5075851;28;20174;-84
2023/06/11 08:46:13;;;;;;;2.90;2.45;;;20.40;99.30;;;;;;5090010;28;20218;-85
2023/06/11 08:48:42;;;;;;;4.47;2.70;;;20.40;98.00;;;;;;5081263;28;20175;-82
2023/06/11 08:51:10;;;;;;;5.40;3.63;;;20.50;98.40;;;;;;5076321;28;20229;-81
2023/06/11 08:53:37;;;;;;;1.90;1.75;;;20.60;97.00;;;;;;5080527;28;20184;-79
2023/06/11 08:56:03;;;;;;;3.42;2.33;;;20.50;98.00;;;;;;5087471;28;20233;-81
2023/06/11 08:58:33;;;;;;;3.00;2.17;;;20.60;97.10;;;;;;5092965;28;20199;-78
2023/06/11 09:01:01;;;;;;;3.25;1.98;;;20.70;96.10;;;;;;5068721;28;20183;-81
2023/06/11 09:03:26;;;;;;;2.90;2.00;;;20.70;96.60;;;;;;5072562;28;20645;-81
2023/06/11 09:05:52;;;;;;;2.78;1.88;;;20.50;95.10;;;;;;5076063;28;20267;-81
2023/06/11 09:08:18;;;;;;;2.42;2.00;;;20.40;95.70;;;;;;5092768;28;20650;-82
2023/06/11 09:10:49;;;;;;;2.60;1.90;;;20.50;96.30;;;;;;5074871;28;20175;-81
2023/06/11 09:13:15;;;;;;;2.53;1.95;;;20.50;95.70;;;;;;5079265;28;20179;-81
2023/06/11 09:15:49;;;;;;;2.75;2.10;;;20.30;96.10;;;;;;5072317;28;20201;-82
2023/06/11 09:18:25;;;;;;;2.53;2.03;;;20.50;96.70;;;;;;5080270;28;20268;-81
2023/06/11 09:20:53;;;;;;;3.13;1.80;;;20.60;95.50;;;;;;5062351;28;20174;-80
2023/06/11 09:23:39;;;;;;;3.80;1.92;;;20.80;95.50;;;;;;5081011;28;20179;-80
2023/06/11 09:26:05;;;;;;;8.35;2.13;;;21.00;95.80;;;;;;5077705;28;20215;-81
2023/06/11 09:28:32;;;;;;;2.63;1.98;;;20.90;95.50;;;;;;5078138;28;20233;-81
2023/06/11 09:31:00;;;;;;;2.47;2.03;;;20.90;95.00;;;;;;5083492;28;20170;-80
2023/06/11 09:33:27;;;;;;;2.45;2.03;;;21.20;95.50;;;;;;5080579;28;20191;-80
2023/06/11 09:35:53;;;;;;;3.90;2.22;;;21.20;93.50;;;;;;5081943;28;20206;-81
2023/06/11 09:38:20;;;;;;;3.55;2.30;;;21.20;93.70;;;;;;5082103;28;20253;-82
2023/06/11 09:40:50;;;;;;;10.77;2.30;;;21.20;94.20;;;;;;5080773;28;20175;-80
2023/06/11 09:43:21;;;;;;;2.67;1.73;;;21.10;93.30;;;;;;5082059;28;20218;-82
2023/06/11 09:45:52;;;;;;;3.83;2.10;;;21.30;93.60;;;;;;5082871;28;20207;-79
2023/06/11 09:48:19;;;;;;;2.20;1.92;;;21.50;93.30;;;;;;5082402;28;20174;-80
2023/06/11 09:50:46;;;;;;;4.18;2.45;;;21.40;92.20;;;;;;5071042;28;20175;-81
2023/06/11 09:53:14;;;;;;;6.18;2.45;;;21.20;92.60;;;;;;5088963;28;20167;-80
2023/06/11 09:55:41;;;;;;;2.72;2.03;;;21.00;91.90;;;;;;5090733;28;20186;-80
2023/06/11 09:58:08;;;;;;;3.13;1.80;;;20.80;92.30;;;;;;5094850;28;20174;-79
2023/06/11 10:00:35;;;;;;;3.72;2.28;;;20.60;93.30;;;;;;5095155;28;20166;-80
2023/06/11 10:03:01;;;;;;;3.00;2.20;;;20.80;93.70;;;;;;5063669;28;20187;-80
2023/06/11 10:05:28;;;;;;;3.65;2.20;;;21.00;92.40;;;;;;5081821;28;20199;-80
2023/06/11 10:07:56;;;;;;;3.10;2.15;;;21.00;92.80;;;;;;5064742;28;20182;-80
2023/06/11 10:10:23;;;;;;;3.03;1.90;;;21.20;92.40;;;;;;5081168;28;20182;-80
2023/06/11 10:12:53;;;;;;;2.42;2.13;;;21.10;91.70;;;;;;5080304;28;20631;-81
2023/06/11 10:15:22;;;;;;;1.65;1.30;;;21.20;92.20;;;;;;5078379;28;20179;-80
2023/06/11 10:17:50;;;;;;;2.92;2.13;;;21.30;92.70;;;;;;5080784;28;20278;-81
2023/06/11 10:20:31;;;;;;;2.53;2.00;;;21.20;91.80;;;;;;5071736;28;20172;-82
2023/06/11 10:23:05;;;;;;;3.83;2.00;;;21.20;92.70;;;;;;5070084;28;20191;-80
2023/06/11 10:25:35;;;;;;;5.78;2.55;;;21.60;93.30;;;;;;5050570;28;20525;-80
2023/06/11 10:28:01;;;;;;;3.28;1.95;;;21.70;90.90;;;;;;5053320;28;20249;-81
2023/06/11 10:30:27;;;;;;;3.70;2.30;;;21.30;91.20;;;;;;5074259;28;20178;-81
2023/06/11 10:32:57;;;;;;;3.92;2.03;;;21.00;92.10;;;;;;5081848;28;20187;-82
2023/06/11 10:35:28;;;;;;;4.63;2.45;;;20.70;91.90;;;;;;5080938;28;20186;-80
2023/06/11 10:38:16;;;;;;;2.97;2.20;;;20.70;93.00;;;;;;5072968;28;20194;-81
2023/06/11 10:40:42;;;;;;;5.05;2.40;;;21.10;92.10;;;;;;5072577;28;20232;-80
2023/06/11 10:43:19;;;;;;;3.15;2.13;;;21.50;92.00;;;;;;5073386;28;20199;-81
2023/06/11 10:45:45;;;;;;;3.40;2.20;;;21.60;91.20;;;;;;5054884;28;20714;-81
2023/06/11 10:48:11;;;;;;;3.63;2.20;;;21.20;90.70;;;;;;5073971;28;20221;-81
2023/06/11 10:50:38;;;;;;;2.63;1.98;;;21.00;91.30;;;;;;5077553;28;20233;-81
2023/06/11 10:53:13;;;;;;;8.73;2.03;;;20.80;92.20;;;;;;5063558;28;20203;-81
2023/06/11 10:55:47;;;;;;;2.42;2.08;;;20.60;92.30;;;;;;5078729;28;20187;-81
2023/06/11 10:58:22;;;;;;;3.58;2.47;;;20.30;92.10;;;;;;5081647;28;20179;-81
2023/06/11 11:00:52;;;;;;;3.22;2.05;;;20.20;93.00;;;;;;5063178;28;20174;-81
2023/06/11 11:03:21;;;;;;;2.65;2.13;;;20.40;93.20;;;;;;5079876;28;20588;-82
2023/06/11 11:05:49;;;;;;;2.53;2.22;;;20.50;92.80;;;;;;5074956;28;20352;-83
2023/06/11 11:08:15;;;;;;;5.25;2.38;;;20.30;92.70;;;;;;5074270;28;20229;-82
2023/06/11 11:10:41;;;;;;;2.97;2.10;;;20.20;92.60;;;;;;5064695;28;20175;-82
2023/06/11 11:13:07;;;;;;;3.92;2.03;;;20.00;93.00;;;;;;5080334;28;20175;-81
2023/06/11 11:15:33;;;;;;;7.00;2.47;;;19.90;93.20;;;;;;5085114;28;20310;-81
2023/06/11 11:17:59;;;;;;;2.10;1.85;;;19.90;93.70;;;;;;5082298;28;20201;-82
2023/06/11 11:20:25;;;;;;;2.58;2.13;;;19.90;93.60;;;;;;5080479;28;20175;-81
2023/06/11 11:22:54;;;;;;;3.10;1.83;;;19.90;94.00;;;;;;5084125;28;20174;-82
2023/06/11 11:25:27;;;;;;;4.35;2.15;;;20.00;93.10;;;;;;5083690;28;20214;-81
2023/06/11 11:27:53;;;;;;;3.63;2.20;;;19.90;93.70;;;;;;5079895;28;20187;-81
2023/06/11 11:30:19;;;;;;;5.07;2.13;;;19.70;93.80;;;;;;5068253;28;20183;-81
2023/06/11 11:32:45;;;;;;;4.45;2.20;;;19.60;93.30;;;;;;5080994;28;20217;-82
2023/06/11 11:35:13;;;;;;;7.38;2.25;;;19.60;94.30;;;;;;5094265;28;20174;-82
2023/06/11 11:37:39;;;;;;;4.13;1.98;;;19.50;93.30;;;;;;5076417;28;20236;-81
2023/06/11 11:40:08;;;;;;;4.20;2.65;;;19.30;94.00;;;;;;5051341;28;20594;-81
2023/06/11 11:42:58;;;;;;;3.30;2.33;;;19.20;95.30;;;;;;5073390;28;20189;-81
2023/06/11 11:45:33;;;;;;;7.13;2.05;;;19.30;95.40;;;;;;5054609;28;20204;-80
2023/06/11 11:48:01;;;;;;;2.65;2.05;;;19.30;95.60;;;;;;5054002;28;20195;-81
2023/06/11 11:50:30;;;;;;;5.30;2.38;;;19.30;95.30;;;;;;5059968;28;20225;-82
2023/06/11 11:53:06;;;;;;;4.07;2.03;;;19.20;94.80;;;;;;5082517;28;20211;-81
2023/06/11 11:55:39;;;;;;;3.65;2.28;;;19.20;94.90;;;;;;5082394;28;20305;-86
2023/06/11 11:58:09;;;;;;;3.53;2.13;;;19.10;95.10;;;;;;5080255;28;20188;-82
2023/06/11 12:00:37;;;;;;;5.03;2.13;;;19.10;95.50;;;;;;5082899;28;20674;-82
2023/06/11 12:03:10;;;;;;;5.38;2.45;;;19.10;95.10;;;;;;5075981;28;20182;-82
2023/06/11 12:05:37;;;;;;;3.05;1.90;;;19.20;95.50;;;;;;5084216;28;20769;-82
2023/06/11 12:08:03;;;;;;;7.82;2.20;;;17.40;94.70;;;;;;5080790;28;20205;-81
2023/06/11 12:10:29;;;;;;;3.38;2.33;;;19.30;95.40;;;;;;5065573;28;20673;-82
2023/06/11 12:12:55;;;;;;;2.70;1.98;;;19.30;95.10;;;;;;5084635;28;20175;-82
2023/06/11 12:15:20;;;;;;;2.75;2.15;;;19.30;95.30;;;;;;5075883;28;20179;-82
2023/06/11 12:17:46;;;;;;;2.30;1.85;;;19.40;95.90;;;;;;5073438;28;20632;-81
2023/06/11 12:20:12;;;;;;;5.80;2.45;;;19.40;95.80;;;;;;5055198;28;20367;-82
2023/06/11 12:22:38;;;;;;;2.25;1.80;;;19.50;96.20;;;;;;5055972;28;20207;-82
2023/06/11 12:25:04;;;;;;;2.17;1.67;;;19.50;95.10;;;;;;5073114;28;20171;-82
2023/06/11 12:27:30;;;;;;;2.13;1.63;;;19.50;95.00;;;;;;5055376;28;20191;-82
2023/06/11 12:29:57;;;;;;;9.57;3.67;;;19.40;95.10;;;;;;5054812;28;20314;-82
2023/06/11 12:32:25;;;;;;;3.85;2.08;;;19.30;95.70;;;;;;5073009;28;20199;-85
2023/06/11 12:34:51;;;;;;;2.85;1.92;;;19.30;95.50;;;;;;5073307;28;20206;-82
2023/06/11 12:37:17;;;;;;;2.53;2.08;;;19.10;95.80;;;;;;5060186;28;20244;-82
2023/06/11 12:39:43;;;;;;;2.47;1.70;;;19.00;96.10;;;;;;5082849;28;20183;-82
2023/06/11 12:42:15;;;;;;;2.65;1.58;;;19.00;96.80;;;;;;5066014;28;20222;-83
2023/06/11 12:44:41;;;;;;;6.88;2.28;;;18.90;96.60;;;;;;5079865;28;20650;-81
2023/06/11 12:47:08;;;;;;;4.97;1.55;;;19.00;97.20;;;;;;5081333;28;20217;-83
2023/06/11 12:49:34;;;;;;;2.92;2.00;;;18.90;97.10;;;;;;5080251;28;20252;-83